Time;durP1;ratioP1;P1;durP2;ratioP2;P2;SDS_P1;SDS_P2;PMS_P1;PMS_P2;Temp;Humidity;BMP_temperature;BMP_pressure;BME280_temperature;BME280_humidity;BME280_pressure;Samples;Min_cycle;Max_cycle;Signal;HPM_P1;HPM_P2
2023/10/18 00:01:30;;;;;;;8.88;4.78;;;;;;;13.69;72.04;99976.91;5042166;28;20046;-64
2023/10/18 00:03:58;;;;;;;8.68;4.63;;;;;;;13.68;72.24;99963.44;5055976;28;20057;-63
2023/10/18 00:06:26;;;;;;;15.00;4.82;;;;;;;13.72;72.28;99962.38;5029687;28;20069;-62
2023/10/18 00:08:57;;;;;;;10.77;4.65;;;;;;;13.81;71.84;99971.34;5030557;28;20052;-63
2023/10/18 00:11:25;;;;;;;12.15;4.93;;;;;;;13.77;71.78;99958.56;5048361;28;20049;-63
2023/10/18 00:13:53;;;;;;;8.30;4.82;;;;;;;13.93;71.36;99962.97;5028453;28;20063;-63
2023/10/18 00:16:22;;;;;;;9.88;4.72;;;;;;;14.01;70.85;99955.66;5027031;28;20519;-64
2023/10/18 00:18:49;;;;;;;10.68;4.47;;;;;;;13.81;71.28;99963.03;5017467;28;20501;-62
2023/10/18 00:21:16;;;;;;;11.60;4.60;;;;;;;13.72;71.69;99961.59;5018424;28;20057;-63
2023/10/18 00:23:46;;;;;;;11.55;4.45;;;;;;;13.66;72.19;99951.91;5036169;28;20389;-63
2023/10/18 00:26:13;;;;;;;9.05;4.78;;;;;;;13.85;71.43;99940.97;5041580;28;20048;-64
2023/10/18 00:28:44;;;;;;;9.55;4.68;;;;;;;13.79;71.34;99932.13;5038117;28;20056;-63
2023/10/18 00:31:14;;;;;;;8.18;4.20;;;;;;;13.73;71.55;99932.75;5055588;28;20052;-63
2023/10/18 00:33:41;;;;;;;;;;;;;;;13.56;72.04;99931.09;5038513;28;20519;-63
2023/10/18 00:36:10;;;;;;;8.60;4.50;;;;;;;13.60;72.14;99939.50;5056277;28;20583;-63
2023/10/18 00:38:41;;;;;;;11.43;4.35;;;;;;;13.58;72.60;99937.09;5054874;28;20087;-64
2023/10/18 00:41:14;;;;;;;10.73;4.57;;;;;;;13.59;72.19;99927.63;5021813;28;20061;-62
2023/10/18 00:43:45;;;;;;;10.43;5.22;;;;;;;13.41;72.79;99918.81;5056126;28;20068;-63
2023/10/18 00:46:16;;;;;;;13.10;5.30;;;;;;;13.26;73.48;99919.56;5037297;28;20569;-64
2023/10/18 00:48:44;;;;;;;10.00;4.88;;;;;;;13.61;72.88;99922.53;5021579;28;20052;-63
2023/10/18 00:51:17;;;;;;;12.10;4.85;;;;;;;13.83;71.54;99905.34;5038099;28;20053;-63
2023/10/18 00:53:46;;;;;;;10.68;4.60;;;;;;;13.52;72.11;99911.63;5037923;28;20642;-64
2023/10/18 00:56:17;;;;;;;9.50;4.43;;;;;;;13.66;72.26;99905.69;5037466;28;20424;-62
2023/10/18 00:58:44;;;;;;;9.60;4.35;;;;;;;13.50;72.33;99905.63;5037299;28;20053;-63
2023/10/18 01:01:13;;;;;;;8.68;4.47;;;;;;;13.47;72.37;99903.59;5036967;28;20048;-63
2023/10/18 01:03:45;;;;;;;9.10;4.70;;;;;;;13.44;72.76;99895.97;5021020;28;20493;-62
2023/10/18 01:06:23;;;;;;;16.20;5.00;;;;;;;13.47;72.59;99898.06;5031423;28;20049;-63
2023/10/18 01:08:51;;;;;;;9.32;4.75;;;;;;;13.42;72.58;99891.97;5054615;28;20492;-62
2023/10/18 01:11:22;;;;;;;9.35;4.38;;;;;;;13.47;72.44;99884.22;5027157;28;20045;-63
2023/10/18 01:13:50;;;;;;;8.48;4.95;;;;;;;13.42;72.45;99887.22;5036418;28;20064;-64
2023/10/18 01:16:21;;;;;;;9.27;4.03;;;;;;;13.46;72.48;99877.06;5049171;28;20052;-64
2023/10/18 01:18:52;;;;;;;9.55;4.20;;;;;;;13.53;72.38;99868.97;5057306;28;20044;-63
2023/10/18 01:21:20;;;;;;;10.85;4.68;;;;;;;13.57;71.61;99858.00;5013419;28;20060;-63
2023/10/18 01:23:51;;;;;;;9.30;4.25;;;;;;;13.61;71.77;99855.31;5033825;28;20653;-64
2023/10/18 01:26:20;;;;;;;11.48;4.30;;;;;;;13.57;71.73;99864.34;5019566;28;20409;-64
2023/10/18 01:28:48;;;;;;;11.90;4.47;;;;;;;13.49;71.99;99858.97;5054801;28;20056;-63
2023/10/18 01:31:15;;;;;;;10.90;4.47;;;;;;;13.18;72.84;99848.59;5052745;28;20420;-63
2023/10/18 01:33:44;;;;;;;11.27;4.53;;;;;;;13.25;73.00;99854.34;5055189;28;20049;-65
2023/10/18 01:36:14;;;;;;;8.98;4.00;;;;;;;13.20;73.17;99851.81;5037097;28;20380;-64
2023/10/18 01:38:44;;;;;;;7.65;4.60;;;;;;;13.22;73.41;99849.50;5054740;28;20480;-63
2023/10/18 01:41:34;;;;;;;12.82;4.32;;;;;;;13.33;72.73;99841.50;5036530;28;20057;-63
2023/10/18 01:44:07;;;;;;;9.20;4.80;;;;;;;13.38;72.25;99844.03;5022659;28;20424;-64
2023/10/18 01:46:45;;;;;;;13.82;4.90;;;;;;;13.38;72.38;99835.72;5035778;28;20057;-64
2023/10/18 01:49:21;;;;;;;12.23;5.05;;;;;;;13.49;71.66;99832.09;5031312;28;20057;-63
2023/10/18 01:51:51;;;;;;;10.88;4.68;;;;;;;13.50;71.31;99828.19;4999185;28;20050;-64
2023/10/18 01:54:20;;;;;;;7.72;4.50;;;;;;;13.27;72.58;99829.09;5015447;28;20056;-64
2023/10/18 01:56:47;;;;;;;13.45;4.25;;;;;;;13.10;73.02;99821.91;5033430;28;20045;-64
2023/10/18 01:59:18;;;;;;;9.85;4.45;;;;;;;13.23;72.81;99817.91;5051781;28;20048;-64
2023/10/18 02:01:51;;;;;;;7.20;4.57;;;;;;;13.23;72.67;99815.16;5017548;28;20053;-64
2023/10/18 02:04:40;;;;;;;10.25;4.22;;;;;;;13.32;72.66;99810.28;5054498;28;20063;-65
2023/10/18 02:07:21;;;;;;;11.93;4.45;;;;;;;13.17;72.88;99816.59;5054016;28;20033;-63
2023/10/18 02:09:49;;;;;;;9.77;4.22;;;;;;;13.25;72.96;99812.06;5032069;28;20076;-64
2023/10/18 02:12:20;;;;;;;7.85;4.30;;;;;;;13.23;72.26;99806.84;5036403;28;20048;-64
2023/10/18 02:14:49;;;;;;;9.77;4.15;;;;;;;13.19;72.66;99808.75;5036306;28;20049;-64
2023/10/18 02:17:18;;;;;;;14.65;4.32;;;;;;;13.16;72.83;99797.59;5053990;28;20041;-64
2023/10/18 02:19:46;;;;;;;11.70;4.38;;;;;;;13.14;72.87;99791.59;5053044;28;20195;-63
2023/10/18 02:22:16;;;;;;;14.93;4.68;;;;;;;13.09;73.27;99783.56;5033506;28;20524;-64
2023/10/18 02:24:44;;;;;;;10.20;4.43;;;;;;;13.21;72.67;99778.78;5019255;28;20519;-63
2023/10/18 02:27:19;;;;;;;8.63;4.18;;;;;;;13.31;72.14;99777.44;5035424;28;20057;-63
2023/10/18 02:29:47;;;;;;;8.02;4.60;;;;;;;13.34;72.14;99762.91;5037777;28;20550;-64
2023/10/18 02:32:31;;;;;;;11.07;4.32;;;;;;;13.34;71.76;99749.06;5050899;28;20046;-64
2023/10/18 02:34:59;;;;;;;11.57;4.43;;;;;;;13.25;72.35;99754.00;5052865;28;20055;-64
2023/10/18 02:37:26;;;;;;;8.90;4.20;;;;;;;13.20;72.62;99752.28;5027746;28;20547;-66
2023/10/18 02:40:07;;;;;;;9.45;4.60;;;;;;;13.12;72.82;99753.25;5034091;28;20050;-70
2023/10/18 02:42:36;;;;;;;8.23;4.00;;;;;;;13.18;72.84;99749.06;5033336;28;20041;-70
2023/10/18 02:45:12;;;;;;;9.55;4.90;;;;;;;13.41;71.91;99743.72;5033247;28;20050;-69
2023/10/18 02:47:40;;;;;;;9.98;4.40;;;;;;;13.42;71.99;99739.81;5032116;28;20476;-63
2023/10/18 02:50:08;;;;;;;10.48;4.18;;;;;;;13.44;71.10;99746.59;5028631;28;20057;-64
2023/10/18 02:52:36;;;;;;;9.13;4.07;;;;;;;13.27;72.17;99735.88;5033676;28;20042;-64
2023/10/18 02:55:08;;;;;;;10.30;5.28;;;;;;;13.22;72.06;99738.91;5033471;28;20049;-63
2023/10/18 02:57:36;;;;;;;8.13;4.22;;;;;;;13.26;72.00;99717.69;5039127;28;20465;-64
2023/10/18 03:00:10;;;;;;;8.60;4.13;;;;;;;13.17;71.95;99710.69;5053508;28;20052;-63
2023/10/18 03:02:40;;;;;;;12.95;5.25;;;;;;;13.04;73.06;99714.72;5027537;28;20053;-64
2023/10/18 03:05:08;;;;;;;11.23;4.47;;;;;;;13.15;72.69;99711.06;5035895;28;20861;-64
2023/10/18 03:07:35;;;;;;;9.50;4.13;;;;;;;12.97;73.09;99697.91;5053360;28;20045;-62
2023/10/18 03:10:13;;;;;;;13.32;4.35;;;;;;;12.93;73.80;99695.03;5035095;28;20049;-64
2023/10/18 03:12:44;;;;;;;8.45;4.65;;;;;;;13.19;72.82;99686.25;5037063;28;20674;-63
2023/10/18 03:15:18;;;;;;;12.20;4.25;;;;;;;13.34;72.69;99672.44;5034497;28;20057;-63
2023/10/18 03:17:49;;;;;;;8.20;4.30;;;;;;;13.18;72.58;99676.38;5053416;28;20060;-63
2023/10/18 03:20:23;;;;;;;7.95;4.32;;;;;;;13.31;72.43;99687.00;5034413;28;20056;-64
2023/10/18 03:22:52;;;;;;;9.65;4.43;;;;;;;13.34;71.94;99686.28;5053043;28;20057;-62
2023/10/18 03:25:30;;;;;;;7.93;4.22;;;;;;;13.42;72.13;99696.34;5052847;28;20056;-63
2023/10/18 03:27:58;;;;;;;8.02;4.20;;;;;;;13.54;71.27;99693.50;5052202;28;20052;-63
2023/10/18 03:30:44;;;;;;;11.10;4.60;;;;;;;13.53;71.45;99691.88;5039499;28;20050;-65
2023/10/18 03:33:14;;;;;;;7.50;4.40;;;;;;;13.52;71.29;99690.28;5039791;28;20049;-64
2023/10/18 03:35:43;;;;;;;7.22;4.10;;;;;;;13.73;70.91;99706.59;5043462;28;20044;-65
2023/10/18 03:38:17;;;;;;;6.72;3.90;;;;;;;13.75;70.27;99711.78;5037698;28;20408;-64
2023/10/18 03:40:49;;;;;;;11.57;3.88;;;;;;;13.47;71.11;99707.16;5038419;28;20052;-62
2023/10/18 03:43:25;;;;;;;8.25;4.00;;;;;;;13.49;71.67;99693.75;5039037;28;20057;-62
2023/10/18 03:46:13;;;;;;;8.85;3.88;;;;;;;13.28;71.89;99701.53;5038438;28;20053;-64
2023/10/18 03:48:45;;;;;;;10.20;4.15;;;;;;;13.33;72.65;99704.03;5024190;28;20033;-63
2023/10/18 03:51:19;;;;;;;8.10;4.70;;;;;;;13.32;72.35;99699.66;5038593;28;20053;-63
2023/10/18 03:53:52;;;;;;;10.98;4.65;;;;;;;13.61;71.64;99700.38;5056598;28;20588;-63
2023/10/18 03:56:22;;;;;;;9.20;4.28;;;;;;;13.51;71.51;99694.19;5038198;28;20420;-64
2023/10/18 03:58:53;;;;;;;8.25;4.05;;;;;;;13.45;72.05;99678.25;5038738;28;20045;-64
2023/10/18 04:01:22;;;;;;;10.73;4.50;;;;;;;13.12;73.63;99667.53;5056297;28;20059;-63
2023/10/18 04:03:49;;;;;;;21.67;4.85;;;;;;;13.24;73.91;99670.22;5056745;28;20460;-63
2023/10/18 04:06:28;;;;;;;7.55;4.20;;;;;;;13.32;74.56;99679.47;5044496;28;20050;-63
2023/10/18 04:09:00;;;;;;;9.60;4.38;;;;;;;13.51;73.69;99674.06;5030141;28;20052;-63
2023/10/18 04:11:28;;;;;;;9.40;4.70;;;;;;;13.54;73.05;99653.97;5055519;28;20455;-63
2023/10/18 04:13:56;;;;;;;12.20;4.50;;;;;;;13.45;73.36;99648.63;5038079;28;20053;-64
2023/10/18 04:16:30;;;;;;;11.23;5.03;;;;;;;13.31;74.38;99651.03;5055642;28;20049;-63
2023/10/18 04:18:58;;;;;;;10.20;4.20;;;;;;;13.35;74.46;99654.66;5039612;28;20048;-65
2023/10/18 04:21:26;;;;;;;7.25;3.70;;;;;;;13.30;74.76;99656.94;5036557;28;20054;-63
2023/10/18 04:23:56;;;;;;;11.32;4.20;;;;;;;13.43;74.68;99659.25;5036381;28;20057;-65
2023/10/18 04:26:25;;;;;;;7.15;4.40;;;;;;;13.56;74.34;99655.19;5035497;28;20080;-64
2023/10/18 04:28:57;;;;;;;12.32;5.10;;;;;;;13.58;74.60;99649.34;5002121;28;20045;-64
2023/10/18 04:31:24;;;;;;;9.90;4.38;;;;;;;13.65;74.67;99630.09;5046204;28;20056;-63
2023/10/18 04:33:55;;;;;;;11.93;5.00;;;;;;;13.53;75.41;99628.25;5037263;28;20457;-62
2023/10/18 04:36:23;;;;;;;12.00;4.55;;;;;;;13.31;77.39;99623.38;5044352;28;20049;-63
2023/10/18 04:38:56;;;;;;;8.48;4.57;;;;;;;13.37;77.93;99610.09;5040992;28;20051;-63
2023/10/18 04:41:27;;;;;;;10.02;5.07;;;;;;;13.26;78.85;99603.47;5055004;28;20044;-64
2023/10/18 04:44:18;;;;;;;13.77;5.57;;;;;;;13.28;79.63;99596.44;5036746;28;20061;-63
2023/10/18 04:46:48;;;;;;;11.35;4.90;;;;;;;13.29;79.96;99592.50;5037601;28;20052;-64
2023/10/18 04:52:04;;;;;;;10.52;5.28;;;;;;;13.38;80.82;99592.31;5054723;28;20277;-63
2023/10/18 04:54:37;;;;;;;10.57;5.40;;;;;;;13.54;79.79;99585.63;5043574;28;20049;-63
2023/10/18 04:57:09;;;;;;;12.52;4.85;;;;;;;13.45;80.26;99585.00;5046606;28;20053;-63
2023/10/18 04:59:46;;;;;;;10.57;5.20;;;;;;;13.56;81.23;99588.78;5038354;28;20076;-64
2023/10/18 05:02:17;;;;;;;25.52;5.97;;;;;;;13.52;80.57;99581.59;5035188;28;20065;-64
2023/10/18 05:04:46;;;;;;;10.95;5.50;;;;;;;13.58;80.33;99580.16;5019756;28;20048;-63
2023/10/18 05:07:14;;;;;;;11.30;5.55;;;;;;;13.39;80.78;99571.78;5016983;28;20045;-63
2023/10/18 05:09:43;;;;;;;12.55;5.28;;;;;;;13.37;81.38;99579.66;5053819;28;20045;-64
2023/10/18 05:17:26;;;;;;;8.50;4.78;;;;;;;13.18;82.22;99574.06;5054748;28;20056;-63
2023/10/18 05:19:56;;;;;;;15.63;5.75;;;;;;;13.46;81.99;99564.47;5047218;28;20052;-64
2023/10/18 05:22:24;;;;;;;9.50;4.82;;;;;;;13.38;81.75;99562.69;5054202;28;20052;-63
2023/10/18 05:27:45;;;;;;;14.40;5.38;;;;;;;13.51;80.89;99553.09;5055279;28;20053;-64
2023/10/18 05:30:15;;;;;;;10.27;5.20;;;;;;;13.31;81.44;99570.03;5054970;28;20484;-64
2023/10/18 05:32:49;;;;;;;10.70;5.20;;;;;;;13.43;81.39;99567.16;5019116;28;20076;-64
2023/10/18 05:35:27;;;;;;;9.88;5.10;;;;;;;13.46;81.12;99560.88;5036336;28;20052;-63
2023/10/18 05:37:59;;;;;;;9.50;4.88;;;;;;;13.50;80.76;99547.94;5051932;28;20053;-64
2023/10/18 05:43:06;;;;;;;12.88;5.75;;;;;;;13.40;81.62;99557.63;5052961;28;20385;-64
2023/10/18 05:45:33;;;;;;;11.37;5.20;;;;;;;13.28;82.47;99551.38;5036183;28;20056;-64
2023/10/18 05:48:12;;;;;;;14.35;4.90;;;;;;;13.34;82.50;99563.75;5053582;28;20040;-64
2023/10/18 05:50:48;;;;;;;8.63;4.95;;;;;;;13.60;81.56;99558.44;5054098;28;20044;-65
2023/10/18 05:53:29;;;;;;;10.77;5.40;;;;;;;13.62;81.30;99545.06;5038328;28;20053;-67
2023/10/18 05:56:07;;;;;;;9.02;5.32;;;;;;;13.37;82.15;99543.72;5035043;28;20053;-66
2023/10/18 05:58:35;;;;;;;10.90;5.47;;;;;;;13.63;81.91;99543.91;5035732;28;20436;-62
2023/10/18 06:01:04;;;;;;;11.38;5.40;;;;;;;13.47;81.88;99556.97;5019090;28;20555;-64
2023/10/18 06:03:41;;;;;;;9.13;5.32;;;;;;;13.52;81.78;99553.91;5053378;28;20048;-64
2023/10/18 06:06:08;;;;;;;11.00;5.72;;;;;;;13.57;81.99;99559.16;5053508;28;20056;-64
2023/10/18 06:08:36;;;;;;;9.88;5.05;;;;;;;13.71;81.55;99547.59;5053647;28;20127;-64
2023/10/18 06:11:07;;;;;;;12.82;5.10;;;;;;;13.64;81.36;99548.25;5051784;28;20064;-64
2023/10/18 06:13:37;;;;;;;;;;;;;;;13.63;81.22;99551.41;5053436;28;20052;-63
2023/10/18 06:16:18;;;;;;;12.65;5.47;;;;;;;13.41;82.26;99548.16;5050490;28;19928;-63
2023/10/18 06:18:48;;;;;;;10.57;5.28;;;;;;;13.46;82.74;99553.41;5053233;28;20604;-63
2023/10/18 06:21:18;;;;;;;11.07;5.55;;;;;;;13.71;81.91;99562.25;5053247;28;20068;-64
2023/10/18 06:24:16;;;;;;;;;;;;;;;13.82;81.41;99548.66;5050054;28;20069;-64
2023/10/18 06:26:51;;;;;;;11.40;5.70;;;;;;;13.95;80.50;99541.78;5049343;28;20388;-63
2023/10/18 06:29:23;;;;;;;15.38;5.78;;;;;;;13.81;80.92;99531.22;5032655;28;20045;-70
2023/10/18 06:31:53;;;;;;;16.50;5.35;;;;;;;13.77;80.64;99515.72;5039052;28;20052;-71
2023/10/18 06:34:25;;;;;;;18.67;6.15;;;;;;;13.63;81.82;99521.78;5050854;28;20500;-69
2023/10/18 06:36:53;;;;;;;13.00;5.45;;;;;;;13.47;82.92;99516.28;5045776;28;20053;-68
2023/10/18 06:39:34;;;;;;;15.88;6.30;;;;;;;13.43;83.53;99518.16;5043202;28;20048;-69
2023/10/18 06:42:06;;;;;;;20.70;6.15;;;;;;;13.54;83.43;99513.69;5045467;28;20527;-69
2023/10/18 06:44:33;;;;;;;16.27;5.80;;;;;;;13.74;82.36;99510.94;5030611;28;20065;-67
2023/10/18 06:47:01;;;;;;;16.63;6.25;;;;;;;13.65;82.59;99496.50;5020279;28;20057;-71
2023/10/18 06:49:30;;;;;;;11.90;5.93;;;;;;;13.74;82.66;99502.63;5043981;28;20076;-70
2023/10/18 06:52:04;;;;;;;15.88;5.90;;;;;;;13.49;83.51;99500.09;5032831;28;20068;-68
2023/10/18 06:54:31;;;;;;;13.43;5.13;;;;;;;13.76;82.23;99509.38;5038135;28;20048;-71
2023/10/18 06:57:15;;;;;;;12.18;5.85;;;;;;;13.56;82.42;99502.25;5042617;28;20431;-69
2023/10/18 06:59:50;;;;;;;10.18;5.63;;;;;;;13.67;82.70;99500.47;5043628;28;20065;-70
2023/10/18 07:02:27;;;;;;;16.02;5.70;;;;;;;13.52;82.58;99493.88;5033531;28;20048;-72
2023/10/18 07:05:00;;;;;;;10.35;5.80;;;;;;;13.32;83.24;99472.84;5015214;28;20060;-69
2023/10/18 07:07:29;;;;;;;16.45;5.80;;;;;;;13.33;83.99;99457.06;5049699;28;20053;-69
2023/10/18 07:09:58;;;;;;;12.57;6.07;;;;;;;13.40;83.60;99446.97;5047603;28;20049;-69
2023/10/18 07:12:28;;;;;;;12.00;5.90;;;;;;;13.41;83.73;99443.03;5052245;28;20049;-69
2023/10/18 07:14:58;;;;;;;14.20;5.90;;;;;;;13.48;83.71;99454.25;5048385;28;20045;-69
2023/10/18 07:17:25;;;;;;;9.65;5.38;;;;;;;13.83;83.24;99475.50;5052882;28;20049;-69
2023/10/18 07:19:56;;;;;;;17.65;5.55;;;;;;;13.79;81.77;99485.72;5054168;28;20049;-70
2023/10/18 07:22:44;;;;;;;10.13;5.25;;;;;;;13.96;81.50;99474.19;5035627;28;20475;-70
2023/10/18 07:25:22;;;;;;;12.50;5.90;;;;;;;13.95;81.07;99472.56;5038466;28;20056;-69
2023/10/18 07:27:50;;;;;;;11.98;5.40;;;;;;;13.88;81.55;99464.16;5056205;28;20393;-70
2023/10/18 07:30:17;;;;;;;13.00;5.30;;;;;;;13.80;81.97;99476.25;5056476;28;20046;-70
2023/10/18 07:32:47;;;;;;;14.88;5.43;;;;;;;13.90;81.80;99484.75;5030941;28;20083;-70
2023/10/18 07:35:30;;;;;;;11.43;5.38;;;;;;;14.07;81.57;99472.44;5026397;28;20053;-70
2023/10/18 07:37:58;;;;;;;10.60;5.90;;;;;;;14.25;80.87;99471.59;5049181;28;20049;-69
2023/10/18 07:40:33;;;;;;;21.33;11.80;;;;;;;14.17;80.54;99461.56;5051626;28;20042;-69
2023/10/18 07:43:04;;;;;;;14.77;8.43;;;;;;;14.44;79.52;99457.72;5036512;28;20058;-69
2023/10/18 07:45:32;;;;;;;21.58;6.43;;;;;;;14.48;78.81;99460.56;5034432;28;20045;-69
2023/10/18 07:47:59;;;;;;;10.38;5.10;;;;;;;14.56;78.97;99462.28;5017384;28;20053;-70
2023/10/18 07:53:06;;;;;;;17.83;5.72;;;;;;;14.65;78.48;99446.19;5035688;28;20044;-71
2023/10/18 07:55:37;;;;;;;14.18;5.72;;;;;;;14.90;77.58;99432.72;5055387;28;20056;-70
2023/10/18 07:58:32;;;;;;;22.48;9.55;;;;;;;14.78;78.07;99432.94;5052104;28;20040;-72
2023/10/18 08:03:31;;;;;;;10.45;5.53;;;;;;;14.67;78.16;99416.16;5051136;28;20056;-71
2023/10/18 08:06:06;;;;;;;12.23;5.50;;;;;;;14.71;78.26;99414.25;5051212;28;20055;-71
2023/10/18 08:08:36;;;;;;;10.82;5.30;;;;;;;14.70;78.12;99415.38;5054211;28;20045;-70
2023/10/18 08:11:06;;;;;;;15.13;8.32;;;;;;;14.79;78.02;99404.84;5052711;28;20045;-70
2023/10/18 08:13:34;;;;;;;13.13;5.55;;;;;;;14.88;78.21;99413.69;5053291;28;20056;-70
2023/10/18 08:16:26;;;;;;;11.48;5.43;;;;;;;15.00;76.89;99407.13;5036823;28;20056;-71
2023/10/18 08:19:00;;;;;;;13.30;5.50;;;;;;;14.83;77.64;99394.63;5020048;28;20041;-69
2023/10/18 08:21:37;;;;;;;12.30;5.38;;;;;;;15.06;77.61;99405.63;5035633;28;20053;-72
2023/10/18 08:24:08;;;;;;;20.45;5.95;;;;;;;15.14;77.30;99402.59;5049654;28;20058;-73
2023/10/18 08:26:48;;;;;;;12.48;5.40;;;;;;;15.18;77.25;99403.44;5052395;28;20049;-71
2023/10/18 08:29:17;;;;;;;11.70;5.13;;;;;;;15.38;76.42;99395.75;5035655;28;20051;-69
2023/10/18 08:31:48;;;;;;;19.67;5.55;;;;;;;15.48;76.23;99393.16;5051863;28;20045;-68
2023/10/18 08:34:23;;;;;;;16.50;5.32;;;;;;;15.43;75.74;99389.94;5053857;28;20052;-69
2023/10/18 08:37:04;;;;;;;9.48;4.90;;;;;;;15.33;76.35;99390.53;5033812;28;20045;-68
2023/10/18 08:39:53;;;;;;;9.20;4.43;;;;;;;15.39;76.08;99384.31;5035580;28;20054;-68
2023/10/18 08:42:32;;;;;;;10.32;4.97;;;;;;;15.58;75.73;99378.63;5053251;28;20052;-68
2023/10/18 08:45:04;;;;;;;10.82;4.57;;;;;;;15.71;75.29;99385.50;5052798;28;20057;-68
2023/10/18 08:47:35;;;;;;;13.93;4.53;;;;;;;15.82;74.83;99371.72;5020362;28;20045;-68
2023/10/18 08:50:05;;;;;;;10.48;4.97;;;;;;;15.59;75.52;99365.53;5049308;28;20064;-68
2023/10/18 08:52:35;;;;;;;11.32;4.63;;;;;;;15.48;76.50;99359.84;5050448;28;20053;-70
2023/10/18 08:55:22;;;;;;;11.77;4.50;;;;;;;15.85;75.23;99357.06;5033777;28;20048;-69
2023/10/18 08:57:55;;;;;;;13.60;5.25;;;;;;;15.77;75.56;99353.44;5033291;28;20059;-68
2023/10/18 09:02:53;;;;;;;11.88;4.35;;;;;;;16.01;75.17;99365.16;5026446;28;20053;-67
2023/10/18 09:05:22;;;;;;;12.63;5.33;;;;;;;16.08;75.22;99351.34;5029571;28;20045;-67
2023/10/18 09:07:54;;;;;;;12.63;5.10;;;;;;;16.29;74.63;99346.78;5019312;28;20456;-67
2023/10/18 09:11:24;;;;;;;16.30;5.20;;;;;;;16.48;74.27;99341.00;5050077;28;20063;-66
2023/10/18 09:15:55;;;;;;;15.95;5.32;;;;;;;16.59;73.88;99332.75;5016193;28;20049;-67
2023/10/18 09:18:31;;;;;;;11.93;4.50;;;;;;;16.39;74.35;99334.94;5034155;28;20048;-68
2023/10/18 09:21:07;;;;;;;12.45;4.43;;;;;;;16.27;75.03;99328.88;5049396;28;20045;-67
2023/10/18 09:23:35;;;;;;;13.50;5.18;;;;;;;16.35;75.08;99336.13;5026849;28;20057;-70
2023/10/18 09:29:02;;;;;;;13.67;5.47;;;;;;;16.41;75.08;99337.34;5052912;28;20059;-68
2023/10/18 09:31:30;;;;;;;16.67;6.22;;;;;;;16.46;75.17;99331.41;5044071;28;20041;-69
2023/10/18 09:34:07;;;;;;;13.32;7.25;;;;;;;16.62;74.78;99326.41;5042292;28;20409;-69
2023/10/18 09:36:42;;;;;;;12.40;7.43;;;;;;;16.65;74.18;99328.41;5052821;28;20045;-69
2023/10/18 09:39:14;;;;;;;14.80;6.53;;;;;;;16.57;74.70;99326.78;5053149;28;20053;-66
2023/10/18 09:41:42;;;;;;;21.20;11.60;;;;;;;16.77;73.88;99319.78;5053693;28;20033;-67
2023/10/18 09:44:12;;;;;;;12.30;5.28;;;;;;;17.04;73.07;99315.53;5030798;28;20413;-70
2023/10/18 09:46:42;;;;;;;12.88;4.85;;;;;;;16.72;74.37;99314.53;5014461;28;20480;-68
2023/10/18 09:49:19;;;;;;;11.85;4.95;;;;;;;16.61;74.77;99310.91;5050654;28;20053;-67
2023/10/18 09:51:53;;;;;;;9.63;4.25;;;;;;;16.55;75.07;99296.59;5031762;28;20061;-68
2023/10/18 09:54:24;;;;;;;14.52;4.65;;;;;;;16.67;74.55;99301.81;5052563;28;20060;-68
2023/10/18 09:56:55;;;;;;;12.35;4.03;;;;;;;16.65;74.75;99289.47;5050724;28;20049;-67
2023/10/18 09:59:27;;;;;;;9.48;4.40;;;;;;;16.77;74.55;99291.97;5033055;28;20060;-68
2023/10/18 10:02:07;;;;;;;13.60;4.55;;;;;;;16.71;74.70;99282.38;5034170;28;20048;-69
2023/10/18 10:04:42;;;;;;;19.17;5.20;;;;;;;16.94;73.89;99277.34;5048736;28;20044;-71
2023/10/18 10:10:07;;;;;;;14.00;4.97;;;;;;;16.55;76.08;99260.44;5035430;28;20049;-68
2023/10/18 10:12:35;;;;;;;8.95;4.28;;;;;;;16.65;76.35;99264.47;5033981;28;20045;-70
2023/10/18 10:15:17;;;;;;;16.08;5.40;;;;;;;16.63;76.30;99273.19;5045468;28;20044;-68
2023/10/18 10:17:57;;;;;;;17.80;4.90;;;;;;;16.70;76.84;99267.66;5041966;28;20056;-69
2023/10/18 10:20:31;;;;;;;10.43;5.05;;;;;;;16.84;76.35;99267.75;5026262;28;20527;-71
2023/10/18 10:23:04;;;;;;;10.23;4.55;;;;;;;16.80;76.85;99260.59;5018009;28;20040;-70
2023/10/18 10:25:32;;;;;;;11.90;4.45;;;;;;;16.97;76.45;99253.50;5035410;28;20045;-69
2023/10/18 10:31:53;;;;;;;11.07;4.70;;;;;;;17.42;75.66;99250.06;4956292;28;20066;-69
2023/10/18 10:34:32;;;;;;;11.77;5.32;;;;;;;17.27;75.92;99240.88;5032804;28;20052;-69
2023/10/18 10:37:11;;;;;;;9.60;4.53;;;;;;;17.28;76.38;99247.22;5052592;28;20056;-69
2023/10/18 10:39:45;;;;;;;9.65;5.10;;;;;;;17.42;76.67;99250.06;5023666;28;20440;-68
2023/10/18 10:42:19;;;;;;;13.30;4.90;;;;;;;17.55;75.68;99248.53;5052483;28;20048;-68
2023/10/18 10:45:02;;;;;;;9.95;4.45;;;;;;;17.73;75.31;99233.44;5046947;28;20056;-68
2023/10/18 10:47:42;;;;;;;12.43;3.95;;;;;;;17.69;75.38;99235.44;5046213;28;20444;-69
2023/10/18 10:50:11;;;;;;;9.70;3.88;;;;;;;17.57;76.24;99235.03;5051052;28;20610;-69
2023/10/18 10:52:44;;;;;;;10.98;4.00;;;;;;;17.75;75.78;99231.03;5032297;28;20041;-69
2023/10/18 10:55:24;;;;;;;10.43;4.55;;;;;;;17.61;76.06;99216.31;5034500;28;20068;-68
2023/10/18 10:57:52;;;;;;;14.48;5.00;;;;;;;17.63;76.59;99211.94;5032810;28;20045;-69
2023/10/18 11:00:36;;;;;;;12.82;5.75;;;;;;;17.45;77.39;99219.44;5050273;28;20063;-72
2023/10/18 11:03:30;;;;;;;15.32;6.25;;;;;;;17.34;78.71;99207.50;5032855;28;20048;-69
2023/10/18 11:05:59;;;;;;;12.20;6.00;;;;;;;17.49;78.57;99200.00;5029306;28;20410;-67
2023/10/18 11:08:30;;;;;;;13.95;5.80;;;;;;;17.41;78.83;99195.59;5033379;28;20049;-67
2023/10/18 11:11:00;;;;;;;11.50;5.18;;;;;;;17.54;78.21;99200.41;5026685;28;20042;-68
2023/10/18 11:13:30;;;;;;;18.48;9.93;;;;;;;17.62;78.35;99193.66;5050640;28;20036;-68
2023/10/18 11:16:00;;;;;;;14.20;7.22;;;;;;;17.70;78.81;99192.47;5047874;28;20070;-67
2023/10/18 11:18:34;;;;;;;14.63;8.57;;;;;;;17.61;79.02;99178.13;5053233;28;20053;-70
2023/10/18 11:21:18;;;;;;;17.17;10.85;;;;;;;17.47;79.95;99171.78;5032880;28;20049;-68
2023/10/18 11:24:12;;;;;;;21.58;13.30;;;;;;;17.49;81.07;99170.16;5034350;28;20088;-68
2023/10/18 11:26:41;;;;;;;21.88;15.48;;;;;;;17.45;82.27;99177.69;5049053;28;20063;-67
2023/10/18 11:29:08;;;;;;;20.05;11.63;;;;;;;17.61;81.86;99161.41;5030469;28;20700;-66
2023/10/18 11:31:41;;;;;;;26.80;16.85;;;;;;;17.70;82.70;99159.03;5051859;28;20041;-67
2023/10/18 11:34:14;;;;;;;22.52;10.90;;;;;;;17.66;82.72;99163.03;5029786;28;20053;-66
2023/10/18 11:36:42;;;;;;;19.48;9.50;;;;;;;17.51;83.62;99145.50;5048853;28;20044;-67
2023/10/18 11:41:49;;;;;;;17.98;9.25;;;;;;;17.76;83.97;99134.38;5046364;28;20057;-68
2023/10/18 11:44:34;;;;;;;13.18;6.22;;;;;;;17.64;84.84;99120.84;5023626;28;20065;-68
2023/10/18 11:47:11;;;;;;;9.48;5.32;;;;;;;17.66;85.42;99126.84;5042371;28;20428;-68
2023/10/18 11:49:41;;;;;;;12.30;5.60;;;;;;;17.61;87.18;99116.06;5041684;28;20049;-67
2023/10/18 11:52:16;;;;;;;22.30;6.82;;;;;;;17.49;87.59;99114.50;5023383;28;20496;-67
2023/10/18 11:54:45;;;;;;;12.40;6.15;;;;;;;17.48;88.51;99115.69;5047956;28;20052;-68
2023/10/18 11:57:24;;;;;;;14.38;6.70;;;;;;;17.45;89.24;99102.53;5056842;28;20045;-69
2023/10/18 11:59:54;;;;;;;16.73;6.85;;;;;;;17.43;89.89;99102.16;5037336;28;20048;-67
2023/10/18 12:02:28;;;;;;;;;;;;;;;17.48;90.04;99093.44;5053362;28;20037;-68
2023/10/18 12:04:56;;;;;;;10.68;5.45;;;;;;;17.32;91.47;99092.19;5048693;28;19921;-68
2023/10/18 12:07:24;;;;;;;12.82;5.85;;;;;;;17.39;91.64;99081.06;5046723;28;20045;-69
2023/10/18 12:13:07;;;;;;;10.52;5.57;;;;;;;17.07;95.21;99072.69;5054430;28;20040;-68
2023/10/18 12:15:36;;;;;;;11.27;5.78;;;;;;;17.07;95.89;99064.34;5052130;28;20045;-69
2023/10/18 12:18:05;;;;;;;9.70;5.38;;;;;;;17.31;95.26;99057.22;5055142;28;20057;-68
2023/10/18 12:20:35;;;;;;;13.35;4.97;;;;;;;17.22;95.92;99062.38;5050276;28;20059;-67
2023/10/18 12:23:04;;;;;;;10.65;5.32;;;;;;;17.25;96.34;99056.00;5048924;28;20049;-67
2023/10/18 12:25:32;;;;;;;15.35;5.55;;;;;;;17.51;95.66;99058.41;5032996;28;20050;-67
2023/10/18 12:28:00;;;;;;;14.40;5.75;;;;;;;17.56;95.16;99050.44;5053829;28;20052;-68
2023/10/18 12:30:31;;;;;;;12.93;6.95;;;;;;;17.51;95.07;99041.72;5053606;28;20052;-67
2023/10/18 12:33:04;;;;;;;19.08;6.88;;;;;;;17.51;95.27;99039.72;5052049;28;20056;-67